createdAt,value
2022-09-04T00:00:08.702Z,70.73
2022-09-04T00:01:26.087Z,70.79
2022-09-04T00:02:47.096Z,70.90
2022-09-04T00:03:59.166Z,70.97
2022-09-04T00:05:06.136Z,71.35
2022-09-04T00:06:14.534Z,71.16
2022-09-04T00:07:24.339Z,71.25
2022-09-04T00:08:42.723Z,71.64
2022-09-04T00:09:53.894Z,71.21
2022-09-04T00:11:00.572Z,71.18
2022-09-04T00:12:06.430Z,71.70
2022-09-04T00:13:13.396Z,71.36
2022-09-04T00:14:18.528Z,71.47
2022-09-04T00:15:25.047Z,71.47
2022-09-04T00:16:34.403Z,71.70
2022-09-04T00:17:42.653Z,71.76
2022-09-04T00:18:52.122Z,71.59
2022-09-04T00:19:59.558Z,71.77
2022-09-04T00:21:07.210Z,71.78
2022-09-04T00:22:25.910Z,72.04
2022-09-04T00:23:35.416Z,71.83
2022-09-04T00:24:41.732Z,71.71
2022-09-04T00:25:53.382Z,71.97
2022-09-04T00:27:02.354Z,71.61
2022-09-04T00:28:09.492Z,71.80
2022-09-04T00:29:21.275Z,71.64
2022-09-04T00:30:23.695Z,71.61
2022-09-04T00:31:33.971Z,71.70
2022-09-04T00:32:41.470Z,71.87
2022-09-04T00:33:51.902Z,71.73
2022-09-04T00:35:10.441Z,71.78
2022-09-04T00:36:14.569Z,71.99
2022-09-04T00:37:23.042Z,71.72
2022-09-04T00:38:37.581Z,72.21
2022-09-04T00:39:46.715Z,71.72
2022-09-04T00:40:58.736Z,72.07
2022-09-04T00:42:14.504Z,72.46
2022-09-04T00:43:50.363Z,72.38
2022-09-04T00:45:05.322Z,72.02
2022-09-04T00:46:31.010Z,72.05
2022-09-04T00:48:13.043Z,72.27
2022-09-04T00:49:36.427Z,71.91
2022-09-04T00:50:57.221Z,72.31
2022-09-04T00:52:11.964Z,72.34
2022-09-04T00:53:32.699Z,72.54
2022-09-04T00:54:48.808Z,72.63
2022-09-04T00:56:03.121Z,72.71
2022-09-04T00:57:43.240Z,72.23
2022-09-04T00:59:06.086Z,72.60
2022-09-04T01:00:10.416Z,72.31
2022-09-04T01:01:22.321Z,72.24
2022-09-04T01:02:38.167Z,72.79
2022-09-04T01:03:52.639Z,72.68
2022-09-04T01:05:03.226Z,72.87
2022-09-04T01:06:32.709Z,72.62
2022-09-04T01:07:49.467Z,72.91
2022-09-04T01:09:13.340Z,72.82
2022-09-04T01:10:41.758Z,72.80
2022-09-04T01:11:53.704Z,72.60
2022-09-04T01:13:04.712Z,72.84
2022-09-04T01:14:14.644Z,72.94
2022-09-04T01:15:25.526Z,72.87
2022-09-04T01:16:34.059Z,72.80
2022-09-04T01:17:43.017Z,73.19
2022-09-04T01:18:53.157Z,72.85
2022-09-04T01:20:03.734Z,72.85
2022-09-04T01:21:35.304Z,73.25
2022-09-04T01:22:53.840Z,72.71
2022-09-04T01:24:20.070Z,72.69
2022-09-04T01:25:34.728Z,73.21
2022-09-04T01:26:47.765Z,73.26
2022-09-04T01:27:54.678Z,73.12
2022-09-04T01:29:11.482Z,73.44
2022-09-04T01:30:16.545Z,73.06
2022-09-04T01:31:28.058Z,73.42
2022-09-04T01:32:51.925Z,73.72
2022-09-04T01:34:05.664Z,73.37
2022-09-04T01:35:20.302Z,73.52
2022-09-04T01:36:41.198Z,73.19
2022-09-04T01:37:53.915Z,73.60
2022-09-04T01:38:58.584Z,73.32
2022-09-04T01:40:16.842Z,73.61
2022-09-04T01:41:23.355Z,73.38
2022-09-04T01:42:35.715Z,73.24
2022-09-04T01:43:37.475Z,73.42
2022-09-04T01:44:40.839Z,73.39
2022-09-04T01:46:11.932Z,73.80
2022-09-04T01:47:22.358Z,73.75
2022-09-04T01:48:37.103Z,73.40
2022-09-04T01:49:46.243Z,73.44
2022-09-04T01:50:52.601Z,73.86
2022-09-04T01:52:06.416Z,73.88
2022-09-04T01:53:12.790Z,73.59
2022-09-04T01:54:35.233Z,74.03
2022-09-04T01:55:44.871Z,73.81
2022-09-04T01:57:04.391Z,73.62
2022-09-04T01:58:17.412Z,73.94
2022-09-04T01:59:27.795Z,74.25
2022-09-04T02:00:35.436Z,73.73
2022-09-04T02:01:47.501Z,74.23
2022-09-04T02:02:57.345Z,74.13
2022-09-04T02:04:08.172Z,74.29
2022-09-04T02:05:19.867Z,74.21
2022-09-04T02:06:30.697Z,74.46
2022-09-04T02:07:37.304Z,74.46
2022-09-04T02:08:56.894Z,74.57
2022-09-04T02:10:08.286Z,74.45
2022-09-04T02:11:16.302Z,74.56
2022-09-04T02:12:31.025Z,74.64
2022-09-04T02:13:44.916Z,74.52
2022-09-04T02:14:56.911Z,74.37
2022-09-04T02:16:11.110Z,74.44
2022-09-04T02:17:18.555Z,74.43
2022-09-04T02:18:33.908Z,74.67
2022-09-04T02:19:47.680Z,74.38
2022-09-04T02:20:56.560Z,74.43
2022-09-04T02:22:07.772Z,74.77
2022-09-04T02:23:18.245Z,74.75
2022-09-04T02:24:29.767Z,74.62
2022-09-04T02:25:36.193Z,75.06
2022-09-04T02:26:46.890Z,74.77
2022-09-04T02:27:56.207Z,74.60
2022-09-04T02:29:09.515Z,75.06
2022-09-04T02:30:13.952Z,75.04
2022-09-04T02:31:22.411Z,74.95
2022-09-04T02:32:30.945Z,75.24
2022-09-04T02:33:39.449Z,74.65
2022-09-04T02:34:46.861Z,75.17
2022-09-04T02:35:58.489Z,75.23
2022-09-04T02:37:06.409Z,75.26
2022-09-04T02:38:19.413Z,75.07
2022-09-04T02:39:33.902Z,75.51
2022-09-04T02:40:47.488Z,75.27
2022-09-04T02:42:03.752Z,75.42
2022-09-04T02:43:19.614Z,75.52
2022-09-04T02:44:34.384Z,75.20
2022-09-04T02:45:44.816Z,75.25
2022-09-04T02:47:02.758Z,75.78
2022-09-04T02:48:13.931Z,75.66
2022-09-04T02:49:25.715Z,75.52
2022-09-04T02:50:46.187Z,75.69
2022-09-04T02:52:01.759Z,75.58
2022-09-04T02:53:18.386Z,75.58
2022-09-04T02:54:40.116Z,75.54
2022-09-04T02:55:56.384Z,75.81
2022-09-04T02:57:09.834Z,75.84
2022-09-04T02:58:19.724Z,75.67
2022-09-04T02:59:36.269Z,75.99
2022-09-04T03:00:46.273Z,76.16
2022-09-04T03:01:54.192Z,76.05
2022-09-04T03:03:03.505Z,75.80
2022-09-04T03:04:14.165Z,76.16
2022-09-04T03:05:20.779Z,76.05
2022-09-04T03:06:33.040Z,76.25
2022-09-04T03:07:37.345Z,76.04
2022-09-04T03:08:47.030Z,76.56
2022-09-04T03:09:55.203Z,76.35
2022-09-04T03:11:03.785Z,76.17
2022-09-04T03:12:26.583Z,76.16
2022-09-04T03:13:33.380Z,76.44
2022-09-04T03:14:45.311Z,76.74
2022-09-04T03:15:55.205Z,76.79
2022-09-04T03:17:03.383Z,76.57
2022-09-04T03:18:16.820Z,76.89
2022-09-04T03:19:23.446Z,76.81
2022-09-04T03:20:29.255Z,76.32
2022-09-04T03:21:40.666Z,76.99
2022-09-04T03:22:49.459Z,76.46
2022-09-04T03:23:55.695Z,76.77
2022-09-04T03:25:12.978Z,76.68
2022-09-04T03:26:24.727Z,77.04
2022-09-04T03:27:28.466Z,76.86
2022-09-04T03:28:40.629Z,76.69
2022-09-04T03:29:53.610Z,76.80
2022-09-04T03:30:58.302Z,76.81
2022-09-04T03:32:17.178Z,77.08
2022-09-04T03:33:29.617Z,76.42
2022-09-04T03:34:45.707Z,77.08
2022-09-04T03:35:55.394Z,76.86
2022-09-04T03:37:13.393Z,76.82
2022-09-04T03:38:23.965Z,77.04
2022-09-04T03:39:35.781Z,77.14
2022-09-04T03:40:42.894Z,76.92
2022-09-04T03:41:55.366Z,77.20
2022-09-04T03:43:11.283Z,77.37
2022-09-04T03:44:24.410Z,76.99
2022-09-04T03:45:39.019Z,76.87
2022-09-04T03:46:52.882Z,76.93
2022-09-04T03:48:10.010Z,77.40
2022-09-04T03:49:22.451Z,77.45
2022-09-04T03:50:32.636Z,77.21
2022-09-04T03:51:43.924Z,77.38
2022-09-04T03:52:57.578Z,77.07
2022-09-04T03:54:07.953Z,77.56
2022-09-04T03:55:25.627Z,77.56
2022-09-04T03:56:39.774Z,77.54
2022-09-04T03:58:04.722Z,77.63
2022-09-04T03:59:08.617Z,77.47
2022-09-04T04:00:18.147Z,77.51
2022-09-04T04:01:31.143Z,77.39
2022-09-04T04:02:48.203Z,77.79
2022-09-04T04:04:05.460Z,77.53
2022-09-04T04:05:29.092Z,77.56
2022-09-04T04:06:38.207Z,77.78
2022-09-04T04:07:50.176Z,77.74
2022-09-04T04:09:11.780Z,77.89
2022-09-04T04:10:24.976Z,77.65
2022-09-04T04:11:55.603Z,77.62
2022-09-04T04:13:19.314Z,77.58
2022-09-04T04:14:46.105Z,77.87
2022-09-04T04:16:04.232Z,77.66
2022-09-04T04:17:23.732Z,77.83
2022-09-04T04:18:40.531Z,77.83
2022-09-04T04:19:53.131Z,77.64
2022-09-04T04:21:07.199Z,78.08
2022-09-04T04:22:33.275Z,77.58
2022-09-04T04:24:07.585Z,78.00
2022-09-04T04:25:25.144Z,77.76
2022-09-04T04:26:40.681Z,77.70
2022-09-04T04:27:55.973Z,78.14
2022-09-04T04:29:16.287Z,78.04
2022-09-04T04:30:18.747Z,77.87
2022-09-04T04:31:29.177Z,77.86
2022-09-04T04:32:54.057Z,78.16
2022-09-04T04:34:06.726Z,77.63
2022-09-04T04:35:25.085Z,78.25
2022-09-04T04:36:36.683Z,78.11
2022-09-04T04:37:51.908Z,77.95
2022-09-04T04:39:15.431Z,77.88
2022-09-04T04:40:32.682Z,77.92
2022-09-04T04:42:07.751Z,77.82
2022-09-04T04:43:17.498Z,77.90
2022-09-04T04:44:48.165Z,78.02
2022-09-04T04:45:57.025Z,78.05
2022-09-04T04:47:11.475Z,77.74
2022-09-04T04:48:52.942Z,77.99
2022-09-04T04:50:08.182Z,77.78
2022-09-04T04:51:23.087Z,78.35
2022-09-04T04:52:40.844Z,78.11
2022-09-04T04:53:52.096Z,78.19
2022-09-04T04:55:16.447Z,78.04
2022-09-04T04:56:26.378Z,78.04
2022-09-04T04:57:36.690Z,78.27
2022-09-04T04:58:58.793Z,77.94
2022-09-04T05:00:08.841Z,77.92
2022-09-04T05:01:26.236Z,78.16
2022-09-04T05:02:32.045Z,77.99
2022-09-04T05:03:46.001Z,78.16
2022-09-04T05:04:54.844Z,78.12
2022-09-04T05:06:07.011Z,78.13
2022-09-04T05:07:19.633Z,77.75
2022-09-04T05:08:36.773Z,78.14
2022-09-04T05:09:47.880Z,77.87
2022-09-04T05:10:56.027Z,78.21
2022-09-04T05:12:03.405Z,77.89
2022-09-04T05:13:19.007Z,77.74
2022-09-04T05:14:33.406Z,77.87
2022-09-04T05:15:58.449Z,77.66
2022-09-04T05:17:14.926Z,77.98
2022-09-04T05:18:23.055Z,78.08
2022-09-04T05:19:33.577Z,77.95
2022-09-04T05:20:42.659Z,77.82
2022-09-04T05:21:54.600Z,77.97
2022-09-04T05:23:06.580Z,77.74
2022-09-04T05:24:17.355Z,77.81
2022-09-04T05:25:25.652Z,77.50
2022-09-04T05:26:34.406Z,77.50
2022-09-04T05:27:54.067Z,77.35
2022-09-04T05:29:03.038Z,77.64
2022-09-04T05:30:10.423Z,77.43
2022-09-04T05:31:21.931Z,77.89
2022-09-04T05:32:29.058Z,77.46
2022-09-04T05:33:39.513Z,77.70
2022-09-04T05:35:02.056Z,77.38
2022-09-04T05:36:12.528Z,77.68
2022-09-04T05:37:22.159Z,77.50
2022-09-04T05:38:37.124Z,77.47
2022-09-04T05:39:54.631Z,77.32
2022-09-04T05:41:07.050Z,77.51
2022-09-04T05:42:23.921Z,77.51
2022-09-04T05:43:40.832Z,76.98
2022-09-04T05:44:58.189Z,76.97
2022-09-04T05:46:08.372Z,76.97
2022-09-04T05:47:27.503Z,76.77
2022-09-04T05:48:43.508Z,76.40
2022-09-04T05:50:08.317Z,76.07
2022-09-04T05:51:45.083Z,76.01
2022-09-04T05:53:19.179Z,75.93
2022-09-04T05:54:39.148Z,75.76
2022-09-04T05:56:09.511Z,75.62
2022-09-04T05:57:21.968Z,75.63
2022-09-04T05:58:50.116Z,75.21
2022-09-04T06:00:12.588Z,74.90
2022-09-04T06:01:30.265Z,74.87
2022-09-04T06:03:05.780Z,74.43
2022-09-04T06:04:47.285Z,74.77
2022-09-04T06:06:07.480Z,74.44
2022-09-04T06:07:18.225Z,74.39
2022-09-04T06:08:33.414Z,74.22
2022-09-04T06:09:51.821Z,74.15
2022-09-04T06:11:09.313Z,74.12
2022-09-04T06:12:26.470Z,74.25
2022-09-04T06:13:59.298Z,73.53
2022-09-04T06:15:20.926Z,73.63
2022-09-04T06:16:37.273Z,73.20
2022-09-04T06:18:06.802Z,73.36
2022-09-04T06:19:28.950Z,73.38
2022-09-04T06:20:59.145Z,73.16
2022-09-04T06:22:15.268Z,72.82
2022-09-04T06:23:43.842Z,72.61
2022-09-04T06:25:13.572Z,72.54
2022-09-04T06:26:41.187Z,72.97
2022-09-04T06:28:04.293Z,72.58
2022-09-04T06:29:18.173Z,72.47
2022-09-04T06:30:20.021Z,72.40
2022-09-04T06:31:47.972Z,71.92
2022-09-04T06:33:14.107Z,71.74
2022-09-04T06:34:25.722Z,71.88
2022-09-04T06:35:44.496Z,71.66
2022-09-04T06:36:59.942Z,71.62
2022-09-04T06:38:28.373Z,71.99
2022-09-04T06:39:47.274Z,71.59
2022-09-04T06:41:08.689Z,71.27
2022-09-04T06:42:36.615Z,71.55
2022-09-04T06:43:44.385Z,71.21
2022-09-04T06:45:09.731Z,71.14
2022-09-04T06:46:21.516Z,71.12
2022-09-04T06:47:33.751Z,71.07
2022-09-04T06:48:47.324Z,71.20
2022-09-04T06:50:07.255Z,70.71
2022-09-04T06:51:32.331Z,71.00
2022-09-04T06:52:45.825Z,71.15
2022-09-04T06:54:00.253Z,70.91
2022-09-04T06:55:13.635Z,70.64
2022-09-04T06:56:42.486Z,70.93
2022-09-04T06:58:09.007Z,70.70
2022-09-04T06:59:44.417Z,70.76
2022-09-04T07:00:53.363Z,70.51
2022-09-04T07:02:08.132Z,70.47
2022-09-04T07:03:45.933Z,70.56
2022-09-04T07:04:59.698Z,70.80
2022-09-04T07:06:11.278Z,70.58
2022-09-04T07:07:23.045Z,70.45
2022-09-04T07:08:39.475Z,70.83
2022-09-04T07:09:46.364Z,70.23
2022-09-04T07:11:00.501Z,70.54
2022-09-04T07:12:33.801Z,70.32
2022-09-04T07:14:07.762Z,70.24
2022-09-04T07:15:29.116Z,70.30
2022-09-04T07:16:38.915Z,70.32
2022-09-04T07:17:46.504Z,70.11
2022-09-04T07:19:38.403Z,69.99
2022-09-04T07:20:56.601Z,70.00
2022-09-04T07:22:11.660Z,70.30
2022-09-04T07:23:25.658Z,70.11
2022-09-04T07:24:48.369Z,69.88
2022-09-04T07:26:02.411Z,69.92
2022-09-04T07:27:12.130Z,70.02
2022-09-04T07:28:49.404Z,69.84
2022-09-04T07:30:00.816Z,69.63
2022-09-04T07:31:09.310Z,70.01
2022-09-04T07:32:18.866Z,69.88
2022-09-04T07:33:31.767Z,69.82
2022-09-04T07:34:42.811Z,69.67
2022-09-04T07:35:51.558Z,69.89
2022-09-04T07:36:59.125Z,69.70
2022-09-04T07:38:09.617Z,69.66
2022-09-04T07:39:19.132Z,69.79
2022-09-04T07:40:28.050Z,69.55
2022-09-04T07:41:40.494Z,69.70
2022-09-04T07:42:49.440Z,69.21
2022-09-04T07:44:03.750Z,69.71
2022-09-04T07:45:16.490Z,69.33
2022-09-04T07:46:26.381Z,69.22
2022-09-04T07:47:35.246Z,69.26
2022-09-04T07:48:44.191Z,69.17
2022-09-04T07:50:00.681Z,69.44
2022-09-04T07:51:10.512Z,69.33
2022-09-04T07:52:22.684Z,69.31
2022-09-04T07:53:35.839Z,69.22
2022-09-04T07:54:58.547Z,69.26
2022-09-04T07:56:06.565Z,69.32
2022-09-04T07:57:32.892Z,68.95
2022-09-04T07:59:20.388Z,69.07
2022-09-04T08:00:23.543Z,69.12
2022-09-04T08:01:42.297Z,68.81
2022-09-04T08:03:25.524Z,69.03
2022-09-04T08:05:02.467Z,69.15
2022-09-04T08:06:18.296Z,68.95
2022-09-04T08:07:30.203Z,69.03
2022-09-04T08:08:56.009Z,68.77
2022-09-04T08:10:13.547Z,68.66
2022-09-04T08:11:32.273Z,68.68
2022-09-04T08:12:56.255Z,68.54
2022-09-04T08:14:17.098Z,68.33
2022-09-04T08:15:21.964Z,68.75
2022-09-04T08:16:31.082Z,68.36
2022-09-04T08:17:49.141Z,68.57
2022-09-04T08:19:06.880Z,68.53
2022-09-04T08:20:19.509Z,68.38
2022-09-04T08:21:28.835Z,68.50
2022-09-04T08:22:42.507Z,68.26
2022-09-04T08:24:11.763Z,68.02
2022-09-04T08:25:26.884Z,68.11
2022-09-04T08:26:39.129Z,68.51
2022-09-04T08:27:54.319Z,68.22
2022-09-04T08:29:33.333Z,68.37
2022-09-04T08:30:41.272Z,68.12
2022-09-04T08:31:53.909Z,67.84
2022-09-04T08:33:25.642Z,68.02
2022-09-04T08:34:46.179Z,67.94
2022-09-04T08:35:55.335Z,67.76
2022-09-04T08:37:10.573Z,67.72
2022-09-04T08:38:29.056Z,67.84
2022-09-04T08:39:41.725Z,67.87
2022-09-04T08:41:21.326Z,67.61
2022-09-04T08:42:59.096Z,67.71
2022-09-04T08:44:43.771Z,67.57
2022-09-04T08:46:29.896Z,67.51
2022-09-04T08:48:08.022Z,67.59
2022-09-04T08:49:55.159Z,67.34
2022-09-04T08:51:34.738Z,67.44
2022-09-04T08:53:13.694Z,67.42
2022-09-04T08:54:48.870Z,67.32
2022-09-04T08:55:59.592Z,67.23
2022-09-04T08:57:24.072Z,67.10
2022-09-04T08:59:05.276Z,67.03
2022-09-04T09:00:12.471Z,66.88
2022-09-04T09:01:51.654Z,66.66
2022-09-04T09:03:37.829Z,66.79
2022-09-04T09:05:17.370Z,66.71
2022-09-04T09:06:52.229Z,66.52
2022-09-04T09:08:11.654Z,66.74
2022-09-04T09:10:04.883Z,66.50
2022-09-04T09:11:43.535Z,66.22
2022-09-04T09:13:12.723Z,65.85
2022-09-04T09:14:53.034Z,66.22
2022-09-04T09:16:19.784Z,65.97
2022-09-04T09:17:38.366Z,65.85
2022-09-04T09:18:56.376Z,65.98
2022-09-04T09:20:01.342Z,65.82
2022-09-04T09:21:08.355Z,65.45
2022-09-04T09:22:24.748Z,65.57
2022-09-04T09:23:38.694Z,65.31
2022-09-04T09:25:01.267Z,65.25
2022-09-04T09:26:28.327Z,65.00
2022-09-04T09:28:11.329Z,64.91
2022-09-04T09:29:33.962Z,65.11
2022-09-04T09:30:58.777Z,65.02
2022-09-04T09:32:40.027Z,64.89
2022-09-04T09:34:14.909Z,64.83
2022-09-04T09:35:59.201Z,64.72
2022-09-04T09:37:37.460Z,64.66
2022-09-04T09:39:21.576Z,64.71
2022-09-04T09:40:39.672Z,64.18
2022-09-04T09:42:28.329Z,64.29
2022-09-04T09:44:12.730Z,64.29
2022-09-04T09:45:35.869Z,63.89
2022-09-04T09:47:05.115Z,63.96
2022-09-04T09:48:41.902Z,64.17
2022-09-04T09:50:03.615Z,63.91
2022-09-04T09:51:46.310Z,63.58
2022-09-04T09:53:25.631Z,63.63
2022-09-04T09:55:04.339Z,63.48
2022-09-04T09:56:42.788Z,63.50
2022-09-04T09:58:24.869Z,63.60
2022-09-04T09:59:59.528Z,63.18
2022-09-04T10:01:15.180Z,63.32
2022-09-04T10:02:42.384Z,62.88
2022-09-04T10:04:34.449Z,62.83
2022-09-04T10:06:03.045Z,63.03
2022-09-04T10:07:45.217Z,62.48
2022-09-04T10:09:26.142Z,62.79
2022-09-04T10:10:54.003Z,62.38
2022-09-04T10:12:20.000Z,62.27
2022-09-04T10:13:50.195Z,62.43
2022-09-04T10:15:17.990Z,62.16
2022-09-04T10:17:03.534Z,61.87
2022-09-04T10:18:33.352Z,61.66
2022-09-04T10:20:04.962Z,62.17
2022-09-04T10:21:49.528Z,61.73
2022-09-04T10:23:37.250Z,62.05
2022-09-04T10:25:10.803Z,61.47
2022-09-04T10:26:44.281Z,61.20
2022-09-04T10:28:19.921Z,61.67
2022-09-04T10:29:56.371Z,61.34
2022-09-04T10:31:27.781Z,61.08
2022-09-04T10:33:07.953Z,60.79
2022-09-04T10:34:28.957Z,60.64
2022-09-04T10:35:43.749Z,60.98
2022-09-04T10:36:54.063Z,60.44
2022-09-04T10:38:19.510Z,60.07
2022-09-04T10:39:50.647Z,60.02
2022-09-04T10:41:17.100Z,60.21
2022-09-04T10:42:33.690Z,59.77
2022-09-04T10:43:57.981Z,59.89
2022-09-04T10:45:16.925Z,59.63
2022-09-04T10:46:26.191Z,59.85
2022-09-04T10:47:51.212Z,59.24
2022-09-04T10:49:18.968Z,58.83
2022-09-04T10:50:30.268Z,59.56
2022-09-04T10:52:08.792Z,59.26
2022-09-04T10:53:38.753Z,58.74
2022-09-04T10:55:10.157Z,59.22
2022-09-04T10:56:23.293Z,58.48
2022-09-04T10:57:42.000Z,58.46
2022-09-04T10:59:04.093Z,58.17
2022-09-04T11:00:08.816Z,58.53
2022-09-04T11:01:37.551Z,57.99
2022-09-04T11:03:13.745Z,58.42
2022-09-04T11:04:37.601Z,58.26
2022-09-04T11:05:54.065Z,57.26
2022-09-04T11:07:46.909Z,57.77
2022-09-04T11:09:30.491Z,57.19
2022-09-04T11:10:56.504Z,56.83
2022-09-04T11:12:11.413Z,56.62
2022-09-04T11:14:03.622Z,56.56
2022-09-04T11:15:45.090Z,56.69
2022-09-04T11:17:09.304Z,56.46
2022-09-04T11:18:26.850Z,56.23
2022-09-04T11:20:18.528Z,56.03
2022-09-04T11:21:57.024Z,55.34
2022-09-04T11:23:32.625Z,55.43
2022-09-04T11:25:09.332Z,55.71
2022-09-04T11:27:06.050Z,55.63
2022-09-04T11:28:47.242Z,55.08
2022-09-04T11:30:03.369Z,55.37
2022-09-04T11:31:25.322Z,54.66
2022-09-04T11:32:55.984Z,54.39
2022-09-04T11:34:41.646Z,54.78
2022-09-04T11:36:18.824Z,54.66
2022-09-04T11:38:00.852Z,54.57
2022-09-04T11:39:39.381Z,53.54
2022-09-04T11:41:28.038Z,53.50
2022-09-04T11:42:41.333Z,53.92
2022-09-04T11:44:22.201Z,52.81
2022-09-04T11:46:10.880Z,52.76
2022-09-04T11:47:42.282Z,52.79
2022-09-04T11:49:09.900Z,52.74
2022-09-04T11:50:20.464Z,52.82
2022-09-04T11:51:44.931Z,53.07
2022-09-04T11:53:14.937Z,53.12
2022-09-04T11:54:51.737Z,52.18
2022-09-04T11:56:13.705Z,52.60
2022-09-04T11:57:30.135Z,52.72
2022-09-04T11:59:04.884Z,52.14
2022-09-04T12:00:13.329Z,51.93
2022-09-04T12:01:32.894Z,52.43
2022-09-04T12:03:00.954Z,52.39
2022-09-04T12:04:25.821Z,52.22
2022-09-04T12:05:45.618Z,52.24
2022-09-04T12:07:05.575Z,51.70
2022-09-04T12:08:29.470Z,52.03
2022-09-04T12:10:02.183Z,51.83
2022-09-04T12:11:21.951Z,51.58
2022-09-04T12:12:57.144Z,51.49
2022-09-04T12:14:17.363Z,51.24
2022-09-04T12:15:44.442Z,50.67
2022-09-04T12:17:40.723Z,51.38
2022-09-04T12:19:24.033Z,51.36
2022-09-04T12:21:03.006Z,50.71
2022-09-04T12:22:31.082Z,51.16
2022-09-04T12:23:50.583Z,50.48
2022-09-04T12:25:23.625Z,50.87
2022-09-04T12:27:13.818Z,50.36
2022-09-04T12:28:53.224Z,50.24
2022-09-04T12:30:15.777Z,49.64
2022-09-04T12:31:42.356Z,49.75
2022-09-04T12:33:16.315Z,49.50
2022-09-04T12:34:40.759Z,49.04
2022-09-04T12:36:17.762Z,48.59
2022-09-04T12:37:57.966Z,48.61
2022-09-04T12:39:16.080Z,48.29
2022-09-04T12:40:45.164Z,48.69
2022-09-04T12:41:57.537Z,48.34
2022-09-04T12:43:16.276Z,48.23
2022-09-04T12:44:27.205Z,47.85
2022-09-04T12:45:43.206Z,47.86
2022-09-04T12:47:14.019Z,47.44
2022-09-04T12:48:26.207Z,47.11
2022-09-04T12:49:49.360Z,46.58
2022-09-04T12:50:59.786Z,46.71
2022-09-04T12:52:17.375Z,46.08
2022-09-04T12:53:49.306Z,45.98
2022-09-04T12:55:05.135Z,45.58
2022-09-04T12:56:13.567Z,45.61
2022-09-04T12:57:30.281Z,45.49
2022-09-04T12:58:52.305Z,45.33
2022-09-04T13:00:07.059Z,45.05
2022-09-04T13:01:21.038Z,44.92
2022-09-04T13:02:34.486Z,44.92
2022-09-04T13:03:42.838Z,44.75
2022-09-04T13:04:57.406Z,44.21
2022-09-04T13:06:09.248Z,43.83
2022-09-04T13:07:28.011Z,43.51
2022-09-04T13:08:45.543Z,43.48
2022-09-04T13:09:55.214Z,43.36
2022-09-04T13:11:09.644Z,43.17
2022-09-04T13:12:22.207Z,43.21
2022-09-04T13:13:35.820Z,43.31
2022-09-04T13:14:59.919Z,42.82
2022-09-04T13:16:10.126Z,42.79
2022-09-04T13:17:19.754Z,42.75
2022-09-04T13:18:44.748Z,42.92
2022-09-04T13:20:00.464Z,43.01
2022-09-04T13:21:16.001Z,43.38
2022-09-04T13:22:28.180Z,43.11
2022-09-04T13:23:48.744Z,43.49
2022-09-04T13:25:02.333Z,43.49
2022-09-04T13:26:24.352Z,43.50
2022-09-04T13:27:43.918Z,43.76
2022-09-04T13:28:57.082Z,43.73
2022-09-04T13:30:07.098Z,43.78
2022-09-04T13:31:40.946Z,43.62
2022-09-04T13:32:56.758Z,43.79
2022-09-04T13:34:11.086Z,43.92
2022-09-04T13:35:24.933Z,43.65
2022-09-04T13:36:38.721Z,43.69
2022-09-04T13:37:56.528Z,43.68
2022-09-04T13:39:33.095Z,43.31
2022-09-04T13:41:00.716Z,43.41
2022-09-04T13:42:35.826Z,43.48
2022-09-04T13:43:59.458Z,43.25
2022-09-04T13:45:07.488Z,43.51
2022-09-04T13:46:14.611Z,43.29
2022-09-04T13:47:22.936Z,42.76
2022-09-04T13:48:41.609Z,42.65
2022-09-04T13:49:49.322Z,42.72
2022-09-04T13:50:56.740Z,42.22
2022-09-04T13:52:04.126Z,41.54
2022-09-04T13:53:16.235Z,41.55
2022-09-04T13:54:22.560Z,41.26
2022-09-04T13:55:28.372Z,41.41
2022-09-04T13:56:34.225Z,41.28
2022-09-04T13:57:42.568Z,41.01
2022-09-04T13:58:51.118Z,41.21
2022-09-04T13:59:59.042Z,41.09
2022-09-04T14:01:07.079Z,41.16
2022-09-04T14:02:12.540Z,41.06
2022-09-04T14:03:27.119Z,41.05
2022-09-04T14:04:34.715Z,41.00
2022-09-04T14:05:38.464Z,40.95
2022-09-04T14:06:40.462Z,40.95
2022-09-04T14:07:45.993Z,40.81
2022-09-04T14:09:05.054Z,40.79
2022-09-04T14:10:14.598Z,40.53
2022-09-04T14:11:40.444Z,40.62
2022-09-04T14:13:06.428Z,40.65
2022-09-04T14:14:45.893Z,40.83
2022-09-04T14:16:04.166Z,40.65
2022-09-04T14:17:07.104Z,40.50
2022-09-04T14:18:23.129Z,40.31
2022-09-04T14:19:42.480Z,40.39
2022-09-04T14:20:57.975Z,40.32
2022-09-04T14:22:17.226Z,40.57
2022-09-04T14:23:24.323Z,40.62
2022-09-04T14:24:34.704Z,40.45
2022-09-04T14:25:50.859Z,40.42
2022-09-04T14:26:57.869Z,40.06
2022-09-04T14:28:04.419Z,39.88
2022-09-04T14:29:21.246Z,39.83
2022-09-04T14:30:25.226Z,39.54
2022-09-04T14:31:35.110Z,39.26
2022-09-04T14:32:57.810Z,39.26
2022-09-04T14:34:07.407Z,39.10
2022-09-04T14:35:19.044Z,38.85
2022-09-04T14:36:35.322Z,38.98
2022-09-04T14:38:07.342Z,39.05
2022-09-04T14:39:18.087Z,39.22
2022-09-04T14:40:29.276Z,38.90
2022-09-04T14:41:44.671Z,38.72
2022-09-04T14:42:57.993Z,38.94
2022-09-04T14:44:13.904Z,38.99
2022-09-04T14:45:33.302Z,39.14
2022-09-04T14:46:50.806Z,38.88
2022-09-04T14:47:57.531Z,38.75
2022-09-04T14:49:02.958Z,38.88
2022-09-04T14:50:09.581Z,38.48
2022-09-04T14:51:17.089Z,38.39
2022-09-04T14:52:23.914Z,38.13
2022-09-04T14:53:31.761Z,38.21
2022-09-04T14:54:43.532Z,38.14
2022-09-04T14:56:13.104Z,38.21
2022-09-04T14:57:23.761Z,38.09
2022-09-04T14:58:33.450Z,38.12
2022-09-04T14:59:42.746Z,38.03
2022-09-04T15:00:58.672Z,37.97
2022-09-04T15:02:18.300Z,37.88
2022-09-04T15:03:25.524Z,37.71
2022-09-04T15:04:34.947Z,37.66
2022-09-04T15:05:47.306Z,37.72
2022-09-04T15:07:10.750Z,37.72
2022-09-04T15:08:28.611Z,37.51
2022-09-04T15:09:35.836Z,37.71
2022-09-04T15:10:49.994Z,37.78
2022-09-04T15:12:14.387Z,37.89
2022-09-04T15:13:52.699Z,37.72
2022-09-04T15:15:04.268Z,37.87
2022-09-04T15:16:18.193Z,37.54
2022-09-04T15:17:28.129Z,37.71
2022-09-04T15:18:37.111Z,37.78
2022-09-04T15:19:47.627Z,37.58
2022-09-04T15:20:56.050Z,37.38
2022-09-04T15:22:03.170Z,37.96
2022-09-04T15:23:13.808Z,37.82
2022-09-04T15:24:23.313Z,37.75
2022-09-04T15:25:57.681Z,37.80
2022-09-04T15:27:13.471Z,37.84
2022-09-04T15:28:25.207Z,37.89
2022-09-04T15:29:35.894Z,37.79
2022-09-04T15:30:45.543Z,37.79
2022-09-04T15:31:47.621Z,37.77
2022-09-04T15:33:05.528Z,37.83
2022-09-04T15:34:12.162Z,38.48
2022-09-04T15:35:16.961Z,38.39
2022-09-04T15:36:24.689Z,38.00
2022-09-04T15:37:28.352Z,37.84
2022-09-04T15:38:31.847Z,37.90
2022-09-04T15:39:41.035Z,37.60
2022-09-04T15:41:12.719Z,37.91
2022-09-04T15:42:13.239Z,37.86
2022-09-04T15:43:24.674Z,37.74
2022-09-04T15:44:32.792Z,37.68
2022-09-04T15:45:43.800Z,37.81
2022-09-04T15:46:56.301Z,38.01
2022-09-04T15:48:17.096Z,38.22
2022-09-04T15:49:26.892Z,38.03
2022-09-04T15:50:35.131Z,37.82
2022-09-04T15:51:42.308Z,38.32
2022-09-04T15:52:51.433Z,37.78
2022-09-04T15:54:27.055Z,37.73
2022-09-04T15:55:33.742Z,37.98
2022-09-04T15:56:41.933Z,37.99
2022-09-04T15:57:55.895Z,38.18
2022-09-04T15:59:04.802Z,38.05
2022-09-04T16:00:11.388Z,38.13
2022-09-04T16:01:20.082Z,38.20
2022-09-04T16:02:36.286Z,37.93
2022-09-04T16:03:51.835Z,37.96
2022-09-04T16:05:03.092Z,38.49
2022-09-04T16:06:15.984Z,38.38
2022-09-04T16:07:36.701Z,38.05
2022-09-04T16:08:47.005Z,38.06
2022-09-04T16:09:54.156Z,38.31
2022-09-04T16:11:02.275Z,38.21
2022-09-04T16:12:12.673Z,38.16
2022-09-04T16:13:46.307Z,38.26
2022-09-04T16:14:52.536Z,38.23
2022-09-04T16:16:04.026Z,38.52
2022-09-04T16:17:12.821Z,38.50
2022-09-04T16:18:22.185Z,38.77
2022-09-04T16:19:33.058Z,38.58
2022-09-04T16:20:46.817Z,38.57
2022-09-04T16:22:01.639Z,38.32
2022-09-04T16:23:09.010Z,38.47
2022-09-04T16:24:15.266Z,38.28
2022-09-04T16:25:27.234Z,38.47
2022-09-04T16:26:32.275Z,38.35
2022-09-04T16:27:42.854Z,38.53
2022-09-04T16:28:51.279Z,38.50
2022-09-04T16:29:57.399Z,38.45
2022-09-04T16:31:01.903Z,38.63
2022-09-04T16:32:09.576Z,38.44
2022-09-04T16:33:27.985Z,38.72
2022-09-04T16:34:38.315Z,38.25
2022-09-04T16:35:44.018Z,38.82
2022-09-04T16:36:51.392Z,38.74
2022-09-04T16:38:04.206Z,38.44
2022-09-04T16:39:13.336Z,38.43
2022-09-04T16:40:27.343Z,38.55
2022-09-04T16:41:37.476Z,38.17
2022-09-04T16:42:43.957Z,38.35
2022-09-04T16:44:08.762Z,38.24